Time;durP1;ratioP1;P1;durP2;ratioP2;P2;SDS_P1;SDS_P2;PMS_P1;PMS_P2;Temp;Humidity;BMP_temperature;BMP_pressure;BME280_temperature;BME280_humidity;BME280_pressure;Samples;Min_cycle;Max_cycle;Signal;HPM_P1;HPM_P2
2022/01/17 00:01:16;;;;;;;77.12;33.78;;;;;;;-2.27;92.62;100935.30;1401486;92;21587;-89
2022/01/17 00:03:44;;;;;;;85.10;35.50;;;;;;;-2.24;92.68;100931.77;1413659;92;21494;-89
2022/01/17 00:06:13;;;;;;;90.05;37.30;;;;;;;-2.23;92.54;100934.73;1392079;92;22586;-88
2022/01/17 00:08:44;;;;;;;87.88;35.45;;;;;;;-2.17;92.65;100931.09;1405014;92;22909;-86
2022/01/17 00:11:12;;;;;;;89.03;37.73;;;;;;;-2.11;92.69;100930.86;1407210;92;21524;-89
2022/01/17 00:13:40;;;;;;;88.82;37.15;;;;;;;-2.08;92.48;100927.70;1396547;91;21634;-89
2022/01/17 00:16:12;;;;;;;90.00;35.60;;;;;;;-2.00;92.65;100920.95;1405576;92;21469;-88
2022/01/17 00:21:06;;;;;;;87.55;37.00;;;;;;;-1.97;92.26;100926.03;1409303;92;21620;-90
2022/01/17 00:23:34;;;;;;;102.12;40.75;;;;;;;-1.98;92.12;100927.40;1394739;92;21557;-89
2022/01/17 00:26:06;;;;;;;102.27;40.45;;;;;;;-1.99;92.14;100916.61;1386042;92;21424;-89
2022/01/17 00:28:35;;;;;;;83.17;33.78;;;;;;;-2.00;92.29;100916.22;1398760;91;21550;-88
2022/01/17 00:31:05;;;;;;;91.22;35.78;;;;;;;-2.00;92.36;100917.52;1385621;92;22669;-94
2022/01/17 00:33:33;;;;;;;69.70;28.95;;;;;;;-2.02;92.61;100921.45;1406794;92;21362;-94
2022/01/17 00:36:00;;;;;;;73.05;31.15;;;;;;;-2.07;92.54;100922.09;1403846;92;21591;-93
2022/01/17 00:38:27;;;;;;;80.22;32.25;;;;;;;-2.07;92.65;100918.20;1403867;92;21402;-92
2022/01/17 00:40:55;;;;;;;90.05;34.98;;;;;;;-2.09;92.79;100926.02;1417998;92;21714;-90
2022/01/17 00:43:22;;;;;;;80.87;33.08;;;;;;;-2.04;92.75;100924.57;1411733;92;22837;-91
2022/01/17 00:45:49;;;;;;;74.03;30.02;;;;;;;-2.00;92.88;100928.73;1405391;92;21456;-90
2022/01/17 00:48:16;;;;;;;66.50;28.30;;;;;;;-2.03;92.82;100930.14;1391566;92;22712;-92
2022/01/17 00:50:44;;;;;;;73.28;31.12;;;;;;;-2.04;92.55;100931.06;1394592;92;21442;-90
2022/01/17 00:53:12;;;;;;;67.42;29.00;;;;;;;-2.10;92.79;100931.25;1381705;93;21395;-88
2022/01/17 00:55:39;;;;;;;78.02;33.55;;;;;;;-2.10;92.59;100936.44;1388158;94;22668;-89
2022/01/17 00:58:07;;;;;;;75.65;31.37;;;;;;;-2.06;92.61;100938.87;1372675;94;21565;-86
2022/01/17 01:00:36;;;;;;;77.47;30.95;;;;;;;-2.04;92.64;100931.06;1381828;93;21438;-87
2022/01/17 01:03:05;;;;;;;81.02;31.57;;;;;;;-2.08;92.55;100935.94;1389712;92;21422;-91
2022/01/17 01:05:33;;;;;;;77.10;33.05;;;;;;;-2.08;92.54;100937.23;1411105;92;21621;-90
2022/01/17 01:08:02;;;;;;;84.75;33.35;;;;;;;-2.09;92.57;100940.74;1385650;93;21425;-91
2022/01/17 01:10:29;;;;;;;83.42;34.85;;;;;;;-2.11;92.57;100928.27;1382684;92;23473;-93
2022/01/17 01:12:57;;;;;;;78.95;32.05;;;;;;;-2.12;93.04;100930.48;1362170;95;21483;-92
2022/01/17 01:15:45;;;;;;;83.65;32.78;;;;;;;-2.12;92.64;100930.48;1369877;95;22679;-91
2022/01/17 01:18:13;;;;;;;80.28;32.63;;;;;;;-2.08;92.74;100922.52;1372353;94;21451;-88
2022/01/17 01:28:44;;;;;;;78.50;36.15;;;;;;;-2.21;92.52;100892.75;1411204;90;22479;-88
2022/01/17 01:31:21;;;;;;;72.55;31.17;;;;;;;-2.23;92.58;100879.44;1406980;92;21673;-88
2022/01/17 01:33:51;;;;;;;78.37;33.10;;;;;;;-2.30;92.46;100884.85;1402624;92;21606;-87
2022/01/17 01:36:19;;;;;;;76.35;33.65;;;;;;;-2.36;92.62;100888.97;1411424;91;22114;-88
2022/01/17 01:38:43;;;;;;;78.37;32.78;;;;;;;-2.37;92.80;100886.41;1413436;91;21509;-87
2022/01/17 01:41:10;;;;;;;77.37;31.68;;;;;;;-2.36;92.84;100886.38;1409910;91;22346;-88
2022/01/17 01:43:37;;;;;;;89.75;36.23;;;;;;;-2.34;92.78;100873.34;1384763;92;21524;-90
2022/01/17 01:46:05;;;;;;;82.00;34.40;;;;;;;-2.32;92.80;100857.28;1401707;92;22390;-89
2022/01/17 01:48:35;;;;;;;83.62;35.78;;;;;;;-2.38;92.75;100841.50;1410454;91;21451;-90
2022/01/17 01:51:03;;;;;;;83.45;33.18;;;;;;;-2.39;92.90;100839.78;1403053;92;21451;-90
2022/01/17 01:53:31;;;;;;;81.57;34.88;;;;;;;-2.41;92.79;100839.02;1382759;92;21474;-90
2022/01/17 01:55:58;;;;;;;86.70;35.75;;;;;;;-2.43;92.96;100836.92;1404642;92;21501;-89
2022/01/17 01:58:26;;;;;;;91.40;35.13;;;;;;;-2.43;92.83;100833.03;1388132;92;21600;-88
2022/01/17 02:00:55;;;;;;;86.05;36.85;;;;;;;-2.40;92.75;100829.48;1385979;92;21473;-89
2022/01/17 02:03:23;;;;;;;90.10;35.70;;;;;;;-2.37;92.96;100843.64;1403480;91;21443;-88
2022/01/17 02:05:50;;;;;;;101.10;41.80;;;;;;;-2.38;92.99;100837.61;1388098;92;21570;-90
2022/01/17 02:08:18;;;;;;;114.45;44.85;;;;;;;-2.38;92.98;100831.59;1407393;92;23654;-90
2022/01/17 02:10:45;;;;;;;97.97;39.30;;;;;;;-2.39;93.01;100827.28;1381433;92;21629;-89
2022/01/17 02:13:12;;;;;;;83.40;34.78;;;;;;;-2.37;92.96;100830.67;1405251;92;21444;-89
2022/01/17 02:15:42;;;;;;;76.50;34.08;;;;;;;-2.41;92.89;100828.65;1401062;92;22435;-91
2022/01/17 02:18:11;;;;;;;73.37;31.60;;;;;;;-2.46;92.80;100826.67;1414244;90;21459;-89
2022/01/17 02:20:58;;;;;;;74.30;32.15;;;;;;;-2.45;92.72;100832.69;1410841;91;21503;-87
2022/01/17 02:23:15;;;;;;;65.08;28.83;;;;;;;-2.47;92.77;100829.30;1401972;92;23525;-88
2022/01/17 02:25:43;;;;;;;63.28;28.42;;;;;;;-2.53;92.64;100832.98;1376644;93;21556;-88
2022/01/17 02:28:10;;;;;;;67.70;29.87;;;;;;;-2.56;92.64;100827.45;1399833;92;21459;-88
2022/01/17 02:30:38;;;;;;;74.58;33.55;;;;;;;-2.59;92.72;100819.80;1400493;92;21973;-88
2022/01/17 02:33:05;;;;;;;72.37;33.40;;;;;;;-2.57;92.87;100830.92;1394585;92;21480;-88
2022/01/17 02:35:32;;;;;;;76.00;32.67;;;;;;;-2.57;92.82;100834.81;1386351;94;21564;-86
2022/01/17 02:37:59;;;;;;;80.80;34.85;;;;;;;-2.54;92.92;100834.70;1399162;92;23468;-87
2022/01/17 02:40:27;;;;;;;92.35;38.73;;;;;;;-2.58;92.74;100829.25;1397092;91;21643;-88
2022/01/17 02:43:05;;;;;;;84.10;36.55;;;;;;;-2.60;92.78;100827.61;1418245;90;21436;-87
2022/01/17 02:48:27;;;;;;;77.87;33.83;;;;;;;-2.57;92.85;100808.06;1396417;92;21415;-87
2022/01/17 02:50:56;;;;;;;79.45;33.38;;;;;;;-2.54;92.81;100807.95;1395898;92;21680;-87
2022/01/17 02:53:24;;;;;;;87.00;34.30;;;;;;;-2.54;92.73;100810.53;1403630;92;21525;-87
2022/01/17 02:56:00;;;;;;;74.60;30.48;;;;;;;-2.56;92.68;100820.10;1416839;92;21459;-87
2022/01/17 02:58:32;;;;;;;78.30;33.70;;;;;;;-2.55;92.66;100831.73;1410947;91;21589;-87
2022/01/17 03:01:00;;;;;;;91.87;37.93;;;;;;;-2.52;92.73;100832.08;1383699;92;21430;-86
2022/01/17 03:03:30;;;;;;;88.33;37.03;;;;;;;-2.49;92.69;100826.78;1389409;92;21680;-86
2022/01/17 03:05:58;;;;;;;82.82;34.63;;;;;;;-2.46;92.57;100821.94;1380273;92;21603;-87
2022/01/17 03:08:30;;;;;;;88.62;35.45;;;;;;;-2.42;92.74;100812.68;1416378;92;21465;-88
2022/01/17 03:10:58;;;;;;;77.30;33.43;;;;;;;-2.42;92.42;100807.50;1405349;92;21554;-89
2022/01/17 03:13:33;;;;;;;78.67;34.00;;;;;;;-2.42;92.28;100808.79;1410941;91;21715;-87
2022/01/17 03:16:10;;;;;;;87.95;39.25;;;;;;;-2.43;92.26;100804.52;1381686;92;21430;-88
2022/01/17 03:18:43;;;;;;;92.85;36.75;;;;;;;-2.49;92.04;100794.38;1383771;92;21481;-88
2022/01/17 03:21:13;;;;;;;85.47;36.55;;;;;;;-2.46;92.14;100786.95;1418527;92;22572;-89
2022/01/17 03:23:40;;;;;;;92.25;35.58;;;;;;;-2.45;92.10;100780.84;1389414;92;22583;-88
2022/01/17 03:26:08;;;;;;;90.57;36.38;;;;;;;-2.49;92.25;100772.34;1407945;93;21475;-88
2022/01/17 03:28:37;;;;;;;103.83;40.35;;;;;;;-2.56;92.24;100772.16;1391975;93;21437;-91
2022/01/17 03:31:08;;;;;;;99.87;41.68;;;;;;;-2.56;92.17;100785.98;1412324;93;21395;-90
2022/01/17 03:33:35;;;;;;;104.27;44.38;;;;;;;-2.57;92.52;100762.25;1402887;93;21696;-89
2022/01/17 03:36:07;;;;;;;121.80;54.60;;;;;;;-2.59;92.57;100748.95;1395169;93;21715;-90
2022/01/17 03:38:35;;;;;;;117.75;49.30;;;;;;;-2.61;92.57;100750.77;1393557;93;22461;-90
2022/01/17 03:41:05;;;;;;;97.95;41.35;;;;;;;-2.60;92.51;100753.75;1395982;93;21745;-89
2022/01/17 03:43:34;;;;;;;91.50;39.85;;;;;;;-2.63;92.72;100757.30;1391665;92;21711;-88
2022/01/17 03:46:01;;;;;;;78.50;35.95;;;;;;;-2.64;92.61;100762.55;1404670;92;21573;-87
2022/01/17 03:48:31;;;;;;;86.17;37.13;;;;;;;-2.67;92.55;100758.78;1401716;92;21642;-88
2022/01/17 03:51:01;;;;;;;86.47;38.48;;;;;;;-2.75;92.75;100756.45;1395925;92;22591;-87
2022/01/17 03:53:29;;;;;;;86.25;37.08;;;;;;;-2.75;92.70;100771.54;1387579;92;21497;-87
2022/01/17 03:55:57;;;;;;;83.00;36.08;;;;;;;-2.73;92.73;100776.68;1391652;91;21725;-87
2022/01/17 03:58:27;;;;;;;95.57;42.00;;;;;;;-2.74;92.88;100758.97;1399599;92;21508;-90
2022/01/17 04:00:57;;;;;;;94.20;42.08;;;;;;;-2.72;92.75;100758.47;1401030;92;21523;-90
2022/01/17 04:03:25;;;;;;;96.78;43.87;;;;;;;-2.76;92.73;100747.00;1409160;92;22367;-89
2022/01/17 04:05:53;;;;;;;94.62;41.50;;;;;;;-2.80;92.92;100737.17;1386652;92;21659;-89
2022/01/17 04:08:21;;;;;;;91.35;38.13;;;;;;;-2.82;93.22;100751.08;1392889;92;21460;-90
2022/01/17 04:10:49;;;;;;;102.38;43.68;;;;;;;-2.80;93.32;100755.30;1395294;91;21466;-89
2022/01/17 04:13:16;;;;;;;90.50;39.10;;;;;;;-2.77;93.12;100739.65;1389820;93;21445;-90
2022/01/17 04:15:44;;;;;;;93.75;41.35;;;;;;;-2.80;93.10;100750.58;1389161;90;21573;-89
2022/01/17 04:18:12;;;;;;;88.78;40.00;;;;;;;-2.80;93.11;100749.28;1393257;92;21671;-90
2022/01/17 04:20:42;;;;;;;86.95;38.70;;;;;;;-2.78;92.98;100753.52;1403553;92;21437;-90
2022/01/17 04:23:12;;;;;;;87.00;39.18;;;;;;;-2.79;92.90;100758.31;1400103;92;22486;-90
2022/01/17 04:25:43;;;;;;;69.80;30.48;;;;;;;-2.83;92.75;100775.30;1392191;92;21497;-90
2022/01/17 04:28:12;;;;;;;97.40;39.80;;;;;;;-2.89;92.47;100771.17;1396938;92;21614;-88
2022/01/17 04:30:42;;;;;;;89.80;41.92;;;;;;;-2.91;92.56;100784.62;1397798;91;21452;-87
2022/01/17 04:33:10;;;;;;;79.17;38.67;;;;;;;-2.96;92.49;100776.19;1396594;92;21423;-89
2022/01/17 04:35:38;;;;;;;76.97;36.60;;;;;;;-3.03;92.65;100774.70;1399240;92;21998;-89
2022/01/17 04:38:09;;;;;;;82.88;39.60;;;;;;;-3.06;92.55;100769.63;1397298;92;22458;-88
2022/01/17 04:40:39;;;;;;;80.00;39.83;;;;;;;-3.08;92.62;100762.34;1400225;92;21464;-88
2022/01/17 04:43:32;;;;;;;76.25;37.78;;;;;;;-3.13;92.78;100753.92;1401412;92;21720;-85
2022/01/17 04:45:50;;;;;;;92.30;44.48;;;;;;;-3.16;92.83;100762.63;1394470;92;21556;-87
2022/01/17 04:48:18;;;;;;;83.90;39.98;;;;;;;-3.19;92.77;100761.45;1411963;91;21527;-88
2022/01/17 04:50:45;;;;;;;78.80;36.53;;;;;;;-3.24;92.89;100781.00;1403296;91;22479;-90
2022/01/17 04:53:16;;;;;;;83.82;39.85;;;;;;;-3.24;93.03;100796.53;1391153;92;21500;-89
2022/01/17 04:55:42;;;;;;;95.15;42.80;;;;;;;-3.26;93.18;100794.44;1408923;91;21517;-88
2022/01/17 04:58:10;;;;;;;84.90;40.03;;;;;;;-3.27;93.24;100786.28;1397197;92;21471;-88
2022/01/17 05:00:39;;;;;;;96.00;43.28;;;;;;;-3.24;93.21;100774.53;1396694;92;21486;-88
2022/01/17 05:03:06;;;;;;;94.58;42.33;;;;;;;-3.26;93.41;100763.83;1404261;92;21576;-87
2022/01/17 05:05:34;;;;;;;91.65;39.95;;;;;;;-3.30;93.47;100760.50;1394104;91;21390;-88
2022/01/17 05:08:01;;;;;;;84.60;39.08;;;;;;;-3.36;93.76;100756.83;1400025;91;21465;-88
2022/01/17 05:10:28;;;;;;;78.52;34.75;;;;;;;-3.36;93.65;100751.66;1399924;91;22337;-88
2022/01/17 05:12:55;;;;;;;86.90;41.48;;;;;;;-3.44;94.33;100761.41;1398801;91;21502;-91
2022/01/17 05:15:33;;;;;;;85.95;40.15;;;;;;;-3.46;93.95;100748.50;1398122;93;21402;-89
2022/01/17 05:18:12;;;;;;;89.05;41.23;;;;;;;-3.44;93.93;100770.02;1391666;92;21998;-89
2022/01/17 05:20:29;;;;;;;90.45;40.92;;;;;;;-3.46;94.20;100778.72;1360035;95;21687;-87
2022/01/17 05:22:56;;;;;;;89.67;37.58;;;;;;;-3.40;93.90;100777.22;1400752;91;23460;-87
2022/01/17 05:25:24;;;;;;;92.25;40.60;;;;;;;-3.41;93.75;100779.42;1387187;91;21488;-88
2022/01/17 05:27:51;;;;;;;95.20;43.90;;;;;;;-3.42;93.67;100781.17;1396201;91;21525;-89
2022/01/17 05:30:29;;;;;;;92.35;45.15;;;;;;;-3.40;93.84;100782.39;1408023;91;21897;-90
2022/01/17 05:32:54;;;;;;;86.75;38.50;;;;;;;-3.37;93.71;100765.92;1363377;92;21477;-88
2022/01/17 05:35:21;;;;;;;90.00;41.35;;;;;;;-3.32;93.63;100763.58;1374868;93;22380;-88
2022/01/17 05:37:49;;;;;;;90.45;40.43;;;;;;;-3.27;93.57;100766.03;1373653;93;21599;-90
2022/01/17 05:40:17;;;;;;;89.90;41.37;;;;;;;-3.25;93.45;100761.20;1360973;93;21709;-90
2022/01/17 05:42:45;;;;;;;99.92;44.63;;;;;;;-3.25;93.45;100757.31;1369570;93;21483;-89
2022/01/17 05:45:14;;;;;;;97.55;41.58;;;;;;;-3.27;93.40;100762.98;1378984;93;21528;-91
2022/01/17 05:47:42;;;;;;;99.30;44.18;;;;;;;-3.26;93.58;100767.25;1376862;94;21495;-90
2022/01/17 05:50:10;;;;;;;96.35;45.08;;;;;;;-3.27;93.47;100762.98;1378008;94;21428;-90
2022/01/17 05:52:38;;;;;;;95.77;41.88;;;;;;;-3.29;93.41;100751.83;1374488;94;22762;-90
2022/01/17 05:55:09;;;;;;;93.40;41.98;;;;;;;-3.33;93.22;100737.31;1373503;93;21587;-92
2022/01/17 05:57:36;;;;;;;78.07;34.63;;;;;;;-3.37;93.16;100729.23;1381398;93;21502;-91
2022/01/17 06:00:08;;;;;;;98.35;46.85;;;;;;;-3.38;93.26;100721.09;1364189;94;22350;-92
2022/01/17 06:02:35;;;;;;;104.12;44.83;;;;;;;-3.38;93.24;100714.61;1390064;94;21565;-91
2022/01/17 06:05:03;;;;;;;92.78;44.77;;;;;;;-3.38;93.43;100713.32;1379432;93;21376;-91
2022/01/17 06:07:31;;;;;;;101.55;42.55;;;;;;;-3.34;93.33;100706.29;1385883;93;21528;-92
2022/01/17 06:09:59;;;;;;;94.13;45.05;;;;;;;-3.30;93.46;100700.97;1371299;93;21741;-92
2022/01/17 06:12:26;;;;;;;108.75;48.42;;;;;;;-3.22;93.56;100695.08;1374656;93;21668;-92
2022/01/17 06:14:54;;;;;;;115.17;51.20;;;;;;;-3.19;93.16;100687.66;1380918;93;21568;-88
2022/01/17 06:17:21;;;;;;;103.60;44.85;;;;;;;-3.17;93.18;100681.95;1370932;93;22492;-88
2022/01/17 06:19:48;;;;;;;103.05;46.48;;;;;;;-3.11;93.13;100681.73;1385376;93;21639;-90
2022/01/17 06:22:15;;;;;;;108.75;49.35;;;;;;;-3.08;92.98;100681.66;1374884;94;22221;-90
2022/01/17 06:24:42;;;;;;;99.75;45.52;;;;;;;-3.06;93.14;100681.13;1365722;95;21460;-90
2022/01/17 06:27:09;;;;;;;115.97;51.25;;;;;;;-3.06;92.84;100688.05;1361539;95;21474;-91
2022/01/17 06:29:37;;;;;;;112.12;50.48;;;;;;;-3.03;92.96;100697.84;1376821;94;21392;-92
2022/01/17 06:32:05;;;;;;;96.25;45.50;;;;;;;-2.98;92.99;100701.58;1368463;94;21478;-93
2022/01/17 06:34:32;;;;;;;117.35;53.08;;;;;;;-3.01;92.87;100703.83;1385002;94;22567;-93
2022/01/17 06:36:59;;;;;;;112.75;47.70;;;;;;;-3.02;92.86;100703.44;1382379;94;21495;-92
2022/01/17 06:39:26;;;;;;;108.63;50.15;;;;;;;-3.06;93.17;100701.84;1375258;93;21623;-92
2022/01/17 06:41:54;;;;;;;115.60;52.33;;;;;;;-3.03;93.11;100684.90;1375335;92;21951;-92
2022/01/17 06:44:21;;;;;;;114.67;51.68;;;;;;;-3.01;93.14;100672.75;1349048;94;22437;-92
2022/01/17 06:46:48;;;;;;;122.98;55.28;;;;;;;-2.97;93.23;100676.06;1373448;93;21676;-91
2022/01/17 06:49:15;;;;;;;117.77;57.03;;;;;;;-2.91;93.21;100671.11;1379612;94;21464;-93
2022/01/17 06:51:45;;;;;;;122.80;55.63;;;;;;;-2.91;93.24;100659.00;1353898;94;22298;-93
2022/01/17 06:54:13;;;;;;;110.35;50.30;;;;;;;-2.87;93.07;100665.78;1376813;93;21480;-93
2022/01/17 06:56:44;;;;;;;116.75;55.43;;;;;;;-2.84;93.11;100663.07;1374266;94;21394;-93
2022/01/17 06:59:10;;;;;;;111.83;52.73;;;;;;;-2.78;93.07;100670.61;1369822;94;23346;-92
2022/01/17 07:01:40;;;;;;;113.15;53.42;;;;;;;-2.73;92.98;100675.17;1369326;93;21541;-93
2022/01/17 07:04:09;;;;;;;129.20;57.23;;;;;;;-2.67;93.00;100675.41;1377475;93;23318;-92
2022/01/17 07:06:40;;;;;;;123.75;53.50;;;;;;;-2.60;92.92;100678.59;1376607;94;22465;-93
2022/01/17 07:09:11;;;;;;;107.52;53.38;;;;;;;-2.53;92.81;100671.00;1368497;93;21477;-89
2022/01/17 07:11:39;;;;;;;130.45;56.88;;;;;;;-2.52;92.55;100645.47;1380324;92;21728;-93
2022/01/17 07:14:12;;;;;;;115.28;53.28;;;;;;;-2.53;92.40;100637.31;1370106;94;22334;-92
2022/01/17 07:16:39;;;;;;;120.57;51.45;;;;;;;-2.52;92.32;100624.73;1383835;93;21464;-92
2022/01/17 07:19:08;;;;;;;122.85;55.92;;;;;;;-2.48;92.60;100628.88;1382905;92;21340;-86
2022/01/17 07:21:35;;;;;;;118.60;52.93;;;;;;;-2.42;92.63;100617.42;1405195;92;21370;-92
2022/01/17 07:24:03;;;;;;;111.03;52.65;;;;;;;-2.32;92.83;100610.53;1398967;92;21451;-92
2022/01/17 07:26:31;;;;;;;105.85;47.58;;;;;;;-2.22;92.76;100601.92;1384663;92;21658;-91
2022/01/17 07:28:58;;;;;;;132.20;58.98;;;;;;;-2.13;92.59;100611.07;1399623;91;21717;-92
2022/01/17 07:31:26;;;;;;;126.25;59.42;;;;;;;-2.03;92.59;100631.85;1392324;92;21577;-93
2022/01/17 07:33:53;;;;;;;127.32;57.45;;;;;;;-1.95;92.36;100651.84;1400239;92;21603;-91
2022/01/17 07:36:20;;;;;;;109.17;52.27;;;;;;;-1.88;92.14;100679.21;1401140;92;21516;-91
2022/01/17 07:38:48;;;;;;;105.15;50.95;;;;;;;-1.79;92.27;100705.69;1401303;92;21572;-91
2022/01/17 07:41:16;;;;;;;114.80;55.08;;;;;;;-1.72;91.83;100703.26;1406875;91;22778;-92
2022/01/17 07:43:43;;;;;;;109.07;49.53;;;;;;;-1.66;91.72;100687.43;1402924;92;21628;-92
2022/01/17 07:46:23;;;;;;;104.05;48.87;;;;;;;-1.58;91.75;100686.66;1406895;92;22593;-88
2022/01/17 07:48:57;;;;;;;94.10;43.60;;;;;;;-1.49;91.43;100655.12;1410696;92;23162;-92
2022/01/17 07:51:12;;;;;;;102.22;51.65;;;;;;;-1.41;91.23;100641.36;1396282;92;22544;-92
2022/01/17 07:53:40;;;;;;;96.30;45.52;;;;;;;-1.31;91.19;100644.84;1387416;92;21503;-92
2022/01/17 07:56:07;;;;;;;93.20;46.98;;;;;;;-1.32;90.28;100644.44;1401593;91;21496;-91
2022/01/17 07:58:34;;;;;;;91.40;44.47;;;;;;;-1.27;90.34;100635.54;1399226;92;22406;-90
2022/01/17 08:01:02;;;;;;;90.03;44.57;;;;;;;-1.20;90.52;100621.85;1404399;91;21655;-91
2022/01/17 08:03:29;;;;;;;90.20;44.40;;;;;;;-1.22;89.65;100571.72;1384664;92;22361;-91
2022/01/17 08:05:56;;;;;;;85.03;41.97;;;;;;;-1.23;89.62;100534.98;1413926;91;21661;-90
2022/01/17 08:08:23;;;;;;;87.77;43.10;;;;;;;-1.30;89.38;100520.58;1401010;92;22166;-90
2022/01/17 08:10:51;;;;;;;87.50;45.23;;;;;;;-1.36;89.73;100504.36;1393256;92;21716;-90
2022/01/17 08:13:18;;;;;;;84.25;43.98;;;;;;;-1.49;90.17;100490.27;1395881;92;22334;-89
2022/01/17 08:15:47;;;;;;;83.87;43.17;;;;;;;-1.47;90.53;100497.52;1394851;92;21545;-91
2022/01/17 08:18:16;;;;;;;86.70;43.83;;;;;;;-1.40;91.14;100513.68;1395018;92;22016;-91
2022/01/17 08:20:44;;;;;;;79.23;39.73;;;;;;;-1.25;91.46;100523.81;1413506;91;21326;-90
2022/01/17 08:23:11;;;;;;;82.05;42.25;;;;;;;-1.12;91.39;100520.19;1420750;92;21735;-86
2022/01/17 08:25:39;;;;;;;68.17;33.87;;;;;;;-0.95;91.39;100526.31;1413702;91;21657;-85
2022/01/17 08:28:06;;;;;;;69.20;37.77;;;;;;;-0.72;91.22;100514.83;1396944;92;21631;-83
2022/01/17 08:30:33;;;;;;;73.10;38.67;;;;;;;-0.50;90.93;100517.20;1404329;92;22735;-85
2022/01/17 08:33:01;;;;;;;62.67;35.73;;;;;;;-0.29;90.37;100539.17;1402206;92;21835;-85
2022/01/17 08:35:28;;;;;;;63.47;35.93;;;;;;;-0.09;89.59;100542.92;1380201;93;25732;-85
2022/01/17 08:37:56;;;;;;;66.83;37.00;;;;;;;0.09;88.45;100550.75;1363013;92;21865;-85
2022/01/17 08:40:24;;;;;;;58.00;33.20;;;;;;;0.22;88.19;100556.53;1402898;92;21769;-84
2022/01/17 08:42:51;;;;;;;58.27;34.87;;;;;;;0.43;88.51;100538.98;1399800;92;21665;-89
2022/01/17 08:45:21;;;;;;;60.50;33.63;;;;;;;0.51;87.41;100536.42;1406579;92;21686;-89
2022/01/17 08:47:52;;;;;;;63.53;37.27;;;;;;;0.43;86.73;100543.32;1405603;92;22011;-90
2022/01/17 08:50:22;;;;;;;59.77;32.73;;;;;;;0.36;87.18;100519.84;1429588;92;21726;-91
2022/01/17 08:52:49;;;;;;;57.77;34.70;;;;;;;0.23;87.38;100480.58;1428609;92;21764;-91
2022/01/17 08:55:17;;;;;;;47.93;29.87;;;;;;;0.19;88.14;100486.88;1396643;91;23625;-91
2022/01/17 08:57:45;;;;;;;58.60;34.30;;;;;;;0.16;88.76;100476.63;1384456;91;22398;-91
2022/01/17 09:00:17;;;;;;;62.93;34.93;;;;;;;0.13;88.83;100463.77;1385550;93;21515;-90
2022/01/17 09:02:44;;;;;;;54.07;30.47;;;;;;;0.12;89.36;100468.61;1387717;92;21791;-90
2022/01/17 09:05:12;;;;;;;54.10;32.07;;;;;;;0.09;89.52;100419.33;1373802;93;21478;-91
2022/01/17 09:07:39;;;;;;;53.07;31.83;;;;;;;0.09;89.82;100420.16;1357445;92;21671;-89
2022/01/17 09:10:07;;;;;;;58.57;31.93;;;;;;;0.13;90.06;100445.55;1370107;92;21737;-90
2022/01/17 09:12:38;;;;;;;64.03;36.00;;;;;;;0.12;90.30;100433.48;1378699;94;21749;-90
2022/01/17 09:15:05;;;;;;;63.08;32.05;;;;;;;0.10;90.40;100423.59;1373328;91;21598;-87
2022/01/17 09:17:33;;;;;;;49.97;28.10;;;;;;;0.12;90.72;100423.06;1360262;93;21627;-89
2022/01/17 09:20:01;;;;;;;53.93;29.63;;;;;;;0.12;90.89;100404.84;1387197;92;22536;-90
2022/01/17 09:22:29;;;;;;;49.70;28.33;;;;;;;0.07;91.50;100401.17;1381155;93;21865;-90
2022/01/17 09:24:56;;;;;;;55.97;32.43;;;;;;;0.08;91.27;100400.70;1390175;92;21658;-89
2022/01/17 09:27:24;;;;;;;54.93;30.83;;;;;;;0.11;91.50;100394.03;1358002;91;21410;-87
2022/01/17 09:29:53;;;;;;;45.00;27.23;;;;;;;0.10;91.84;100383.26;1352510;93;22524;-88
2022/01/17 09:32:20;;;;;;;46.60;26.03;;;;;;;0.15;91.85;100376.05;1363458;93;21351;-85
2022/01/17 09:34:47;;;;;;;40.80;24.53;;;;;;;0.18;91.81;100353.76;1344252;92;21801;-87
2022/01/17 09:37:15;;;;;;;41.23;24.73;;;;;;;0.21;91.62;100343.18;1333915;93;21543;-88
2022/01/17 09:39:42;;;;;;;45.30;27.90;;;;;;;0.23;91.83;100332.20;1347324;95;21807;-84
2022/01/17 09:42:11;;;;;;;43.10;26.07;;;;;;;0.30;91.81;100332.26;1394231;93;21613;-87
2022/01/17 09:44:39;;;;;;;43.83;25.73;;;;;;;0.37;91.69;100327.08;1370391;93;21486;-88
2022/01/17 09:47:08;;;;;;;41.10;24.00;;;;;;;0.42;91.58;100332.04;1366266;92;21571;-87
2022/01/17 09:49:53;;;;;;;42.33;24.70;;;;;;;0.42;91.49;100321.63;1411375;91;21539;-88
2022/01/17 09:52:35;;;;;;;41.77;25.93;;;;;;;0.43;91.47;100299.42;1393061;92;22698;-88
2022/01/17 09:55:25;;;;;;;46.00;25.87;;;;;;;0.45;91.63;100296.25;1411934;92;22512;-88
2022/01/17 09:58:20;;;;;;;42.23;27.30;;;;;;;0.47;91.56;100283.63;1415099;91;22696;-88
2022/01/17 10:00:48;;;;;;;41.20;25.73;;;;;;;0.47;91.74;100281.02;1387969;90;22335;-87
2022/01/17 10:03:20;;;;;;;47.67;25.20;;;;;;;0.50;91.86;100289.48;1401211;91;22729;-88
2022/01/17 10:05:48;;;;;;;41.73;25.07;;;;;;;0.53;91.92;100288.02;1395905;92;21877;-88
2022/01/17 10:08:17;;;;;;;36.47;22.87;;;;;;;0.55;91.92;100273.62;1399866;91;21708;-88
2022/01/17 10:11:00;;;;;;;42.33;26.80;;;;;;;0.62;92.05;100273.63;1382933;92;21856;-87
2022/01/17 10:13:32;;;;;;;34.40;22.20;;;;;;;0.64;91.85;100270.01;1403924;92;22602;-87
2022/01/17 10:16:21;;;;;;;32.93;19.83;;;;;;;0.66;91.90;100260.79;1371278;92;21787;-85
2022/01/17 10:18:55;;;;;;;33.10;20.10;;;;;;;0.65;91.90;100251.30;1364369;93;21961;-82
2022/01/17 10:21:43;;;;;;;28.00;18.45;;;;;;;0.70;92.01;100244.08;1410096;92;21546;-80
2022/01/17 10:35:34;;;;;;;31.93;19.97;;;;;;;0.80;92.40;100212.63;1337247;93;21417;-83
2022/01/17 10:38:20;;;;;;;30.93;17.43;;;;;;;0.84;92.18;100203.72;1373427;94;21904;-85
2022/01/17 10:40:58;;;;;;;25.97;16.33;;;;;;;0.93;92.15;100202.34;1389655;94;22997;-85
2022/01/17 10:43:48;;;;;;;33.40;20.80;;;;;;;1.02;92.01;100193.13;1365155;94;21678;-86
2022/01/17 10:46:27;;;;;;;23.73;16.33;;;;;;;1.15;91.87;100170.58;1388261;93;22777;-84
2022/01/17 10:49:12;;;;;;;23.90;13.77;;;;;;;1.25;91.76;100164.35;1387443;93;21890;-85
2022/01/17 10:51:50;;;;;;;28.20;15.93;;;;;;;1.35;91.31;100153.71;1372268;93;22821;-86
2022/01/17 10:54:28;;;;;;;26.57;16.33;;;;;;;1.46;91.03;100151.74;1377126;93;22419;-87
2022/01/17 10:57:02;;;;;;;22.03;13.60;;;;;;;1.62;90.32;100131.59;1348700;92;22086;-85
2022/01/17 10:59:42;;;;;;;24.23;14.90;;;;;;;1.62;90.32;100131.59;1344029;92;21763;-85
2022/01/17 11:02:32;;;;;;;;;;;;;;;;;;;;;
2022/01/17 11:04:57;;;;;;;24.37;13.28;;;;;;;1.75;90.15;100131.16;1381453;92;21408;-84
2022/01/17 11:07:36;;;;;;;19.17;12.17;;;;;;;1.80;90.24;100129.09;1375111;93;21532;-84
2022/01/17 11:10:16;;;;;;;24.07;12.87;;;;;;;1.87;90.11;100116.95;1384302;93;23024;-84
2022/01/17 11:12:55;;;;;;;18.87;11.20;;;;;;;1.89;89.74;100102.88;1378524;92;22845;-85
2022/01/17 11:15:36;;;;;;;20.47;12.30;;;;;;;1.97;89.79;100110.22;1374719;93;22996;-85
2022/01/17 11:18:26;;;;;;;17.50;11.10;;;;;;;2.15;89.21;100085.49;1357928;92;22097;-84
2022/01/17 11:21:14;;;;;;;15.45;10.15;;;;;;;2.15;89.21;100085.49;1369346;92;23383;-86
2022/01/17 11:23:49;;;;;;;18.60;11.63;;;;;;;2.25;88.80;100071.37;1375398;92;21420;-85
2022/01/17 11:26:22;;;;;;;16.83;11.60;;;;;;;2.29;88.19;100075.44;1387942;93;22406;-85
2022/01/17 11:28:56;;;;;;;16.13;10.20;;;;;;;2.40;88.48;100019.39;1371674;92;22228;-85
2022/01/17 11:31:30;;;;;;;17.33;10.03;;;;;;;2.40;86.86;100019.39;1380046;93;22348;-82
2022/01/17 11:34:20;;;;;;;15.57;8.53;;;;;;;2.43;86.59;100000.06;1342917;96;22261;-81
2022/01/17 11:36:47;;;;;;;15.30;8.43;;;;;;;2.56;87.15;100002.20;1346933;96;23396;-79
2022/01/17 11:39:15;;;;;;;17.57;9.33;;;;;;;2.66;85.70;99995.38;1371650;94;22719;-74
2022/01/17 11:41:49;;;;;;;14.10;8.07;;;;;;;2.71;85.71;99988.53;1370813;94;22106;-75
2022/01/17 11:44:19;;;;;;;10.80;7.97;;;;;;;2.73;84.20;99980.56;1360017;95;22292;-73
2022/01/17 11:46:51;;;;;;;13.13;8.27;;;;;;;2.71;83.51;99988.53;1372019;94;22349;-76
2022/01/17 11:49:31;;;;;;;16.20;9.17;;;;;;;2.82;83.58;99992.53;1369047;94;22409;-76